sensor_id;sensor_type;location;lat;lon;timestamp;pressure;altitude;pressure_sealevel;temperature;humidity
10145;BME280;5113;41.822;23.564;2023-03-04T00:02:02;-11028.09;;;3.39;100.00
10145;BME280;5113;41.822;23.564;2023-03-04T00:05:09;-11025.44;;;3.29;100.00
10145;BME280;5113;41.822;23.564;2023-03-04T00:08:15;-11025.00;;;3.28;100.00
10145;BME280;5113;41.822;23.564;2023-03-04T00:11:21;-11021.34;;;3.15;100.00
10145;BME280;5113;41.822;23.564;2023-03-04T00:14:27;-11022.91;;;3.20;100.00
10145;BME280;5113;41.822;23.564;2023-03-04T00:17:35;-11023.19;;;3.21;100.00
10145;BME280;5113;41.822;23.564;2023-03-04T00:20:41;-11032.84;;;3.56;100.00
10145;BME280;5113;41.822;23.564;2023-03-04T00:23:48;-11029.34;;;3.44;100.00
10145;BME280;5113;41.822;23.564;2023-03-04T00:26:54;-11038.34;;;3.76;100.00
10145;BME280;5113;41.822;23.564;2023-03-04T00:30:00;-11035.81;;;3.67;100.00
10145;BME280;5113;41.822;23.564;2023-03-04T00:33:08;-11035.25;;;3.65;100.00
10145;BME280;5113;41.822;23.564;2023-03-04T00:36:14;-11031.03;;;3.50;100.00
10145;BME280;5113;41.822;23.564;2023-03-04T00:39:21;-11007.47;;;2.64;100.00
10145;BME280;5113;41.822;23.564;2023-03-04T00:42:27;-11009.72;;;2.73;100.00
10145;BME280;5113;41.822;23.564;2023-03-04T00:45:34;-11013.09;;;2.85;100.00
10145;BME280;5113;41.822;23.564;2023-03-04T00:48:41;-11028.50;;;3.41;100.00
10145;BME280;5113;41.822;23.564;2023-03-04T00:51:47;-11020.94;;;3.13;100.00
10145;BME280;5113;41.822;23.564;2023-03-04T00:54:53;-11031.16;;;3.50;100.00
10145;BME280;5113;41.822;23.564;2023-03-04T00:58:00;-11024.88;;;3.27;100.00
10145;BME280;5113;41.822;23.564;2023-03-04T01:01:06;-11022.91;;;3.20;100.00
10145;BME280;5113;41.822;23.564;2023-03-04T01:04:13;-11009.44;;;2.72;100.00
10145;BME280;5113;41.822;23.564;2023-03-04T01:07:19;-11002.44;;;2.46;100.00
10145;BME280;5113;41.822;23.564;2023-03-04T01:10:25;-11003.53;;;2.50;100.00
10145;BME280;5113;41.822;23.564;2023-03-04T01:13:31;-11011.25;;;2.78;100.00
10145;BME280;5113;41.822;23.564;2023-03-04T01:16:37;-11000.47;;;2.39;100.00
10145;BME280;5113;41.822;23.564;2023-03-04T01:19:45;-11011.97;;;2.81;100.00
10145;BME280;5113;41.822;23.564;2023-03-04T01:22:51;-11023.88;;;3.24;100.00
10145;BME280;5113;41.822;23.564;2023-03-04T01:25:57;-11016.31;;;2.96;100.00
10145;BME280;5113;41.822;23.564;2023-03-04T01:29:03;-11003.81;;;2.51;100.00
10145;BME280;5113;41.822;23.564;2023-03-04T01:32:09;-11002.97;;;2.48;100.00
10145;BME280;5113;41.822;23.564;2023-03-04T01:35:17;-11006.06;;;2.59;100.00
10145;BME280;5113;41.822;23.564;2023-03-04T01:38:23;-10997.38;;;2.28;100.00
10145;BME280;5113;41.822;23.564;2023-03-04T01:41:30;-11009.16;;;2.71;100.00
10145;BME280;5113;41.822;23.564;2023-03-04T01:44:37;-11020.78;;;3.13;100.00
10145;BME280;5113;41.822;23.564;2023-03-04T01:47:43;-11016.31;;;2.96;100.00
10145;BME280;5113;41.822;23.564;2023-03-04T01:50:53;-11026.00;;;3.31;100.00
10145;BME280;5113;41.822;23.564;2023-03-04T01:54:00;-11022.19;;;3.18;100.00
10145;BME280;5113;41.822;23.564;2023-03-04T01:57:15;-11025.56;;;3.30;100.00
10145;BME280;5113;41.822;23.564;2023-03-04T02:00:25;-11026.41;;;3.33;100.00
10145;BME280;5113;41.822;23.564;2023-03-04T02:03:31;-11026.81;;;3.35;100.00
10145;BME280;5113;41.822;23.564;2023-03-04T02:06:40;-11025.44;;;3.29;100.00
10145;BME280;5113;41.822;23.564;2023-03-04T02:09:46;-11020.38;;;3.11;100.00
10145;BME280;5113;41.822;23.564;2023-03-04T02:12:53;-11017.28;;;3.00;100.00
10145;BME280;5113;41.822;23.564;2023-03-04T02:15:59;-11025.44;;;3.29;100.00
10145;BME280;5113;41.822;23.564;2023-03-04T02:19:08;-11031.03;;;3.50;100.00
10145;BME280;5113;41.822;23.564;2023-03-04T02:22:19;-11030.63;;;3.48;100.00
10145;BME280;5113;41.822;23.564;2023-03-04T02:25:29;-11036.38;;;3.69;100.00
10145;BME280;5113;41.822;23.564;2023-03-04T02:28:37;-11026.28;;;3.33;100.00
10145;BME280;5113;41.822;23.564;2023-03-04T02:31:46;-11028.22;;;3.40;100.00
10145;BME280;5113;41.822;23.564;2023-03-04T02:34:52;-11029.63;;;3.45;100.00
10145;BME280;5113;41.822;23.564;2023-03-04T02:37:59;-11023.59;;;3.23;100.00
10145;BME280;5113;41.822;23.564;2023-03-04T02:41:05;-11008.59;;;2.69;100.00
10145;BME280;5113;41.822;23.564;2023-03-04T02:44:17;-11010.56;;;2.76;100.00
10145;BME280;5113;41.822;23.564;2023-03-04T02:47:24;-11023.47;;;3.22;100.00
10145;BME280;5113;41.822;23.564;2023-03-04T02:50:33;-11011.53;;;2.79;100.00
10145;BME280;5113;41.822;23.564;2023-03-04T02:53:40;-11008.03;;;2.67;100.00
10145;BME280;5113;41.822;23.564;2023-03-04T02:56:47;-11015.88;;;2.95;100.00
10145;BME280;5113;41.822;23.564;2023-03-04T02:59:55;-11010.84;;;2.77;100.00
10145;BME280;5113;41.822;23.564;2023-03-04T03:03:02;-11020.22;;;3.11;100.00
10145;BME280;5113;41.822;23.564;2023-03-04T03:06:08;-11017.56;;;3.01;100.00
10145;BME280;5113;41.822;23.564;2023-03-04T03:09:15;-11022.75;;;3.20;100.00
10145;BME280;5113;41.822;23.564;2023-03-04T03:12:21;-11018.41;;;3.04;100.00
10145;BME280;5113;41.822;23.564;2023-03-04T03:15:29;-11013.09;;;2.85;100.00
10145;BME280;5113;41.822;23.564;2023-03-04T03:18:35;-11020.50;;;3.12;100.00
10145;BME280;5113;41.822;23.564;2023-03-04T03:21:41;-11030.91;;;3.49;100.00
10145;BME280;5113;41.822;23.564;2023-03-04T03:24:47;-11033.69;;;3.59;100.00
10145;BME280;5113;41.822;23.564;2023-03-04T03:27:53;-11038.19;;;3.76;100.00
10145;BME280;5113;41.822;23.564;2023-03-04T03:31:01;-11034.13;;;3.61;100.00
10145;BME280;5113;41.822;23.564;2023-03-04T03:34:07;-11036.38;;;3.69;100.00
10145;BME280;5113;41.822;23.564;2023-03-04T03:37:13;-11038.06;;;3.75;100.00
10145;BME280;5113;41.822;23.564;2023-03-04T03:40:20;-11032.72;;;3.56;100.00
10145;BME280;5113;41.822;23.564;2023-03-04T03:43:26;-11018.56;;;3.05;100.00
10145;BME280;5113;41.822;23.564;2023-03-04T03:46:34;-11012.81;;;2.84;100.00
10145;BME280;5113;41.822;23.564;2023-03-04T03:49:40;-11017.44;;;3.01;100.00
10145;BME280;5113;41.822;23.564;2023-03-04T03:52:47;-11026.41;;;3.33;100.00
10145;BME280;5113;41.822;23.564;2023-03-04T03:55:53;-11033.00;;;3.57;100.00
10145;BME280;5113;41.822;23.564;2023-03-04T03:59:00;-11036.38;;;3.69;100.00
10145;BME280;5113;41.822;23.564;2023-03-04T04:02:07;-11040.44;;;3.84;100.00
10145;BME280;5113;41.822;23.564;2023-03-04T04:05:14;-11035.94;;;3.68;100.00
10145;BME280;5113;41.822;23.564;2023-03-04T04:08:20;-11041.41;;;3.87;100.00
10145;BME280;5113;41.822;23.564;2023-03-04T04:11:26;-11043.25;;;3.94;100.00
10145;BME280;5113;41.822;23.564;2023-03-04T04:14:33;-11039.31;;;3.80;100.00
10145;BME280;5113;41.822;23.564;2023-03-04T04:17:40;-11019.41;;;3.08;100.00
10145;BME280;5113;41.822;23.564;2023-03-04T04:20:47;-11018.41;;;3.04;100.00
10145;BME280;5113;41.822;23.564;2023-03-04T04:23:53;-11027.66;;;3.38;100.00
10145;BME280;5113;41.822;23.564;2023-03-04T04:26:59;-11022.91;;;3.20;100.00
10145;BME280;5113;41.822;23.564;2023-03-04T04:30:06;-11036.09;;;3.68;100.00
10145;BME280;5113;41.822;23.564;2023-03-04T04:33:14;-11037.34;;;3.73;100.00
10145;BME280;5113;41.822;23.564;2023-03-04T04:36:20;-11027.37;;;3.37;100.00
10145;BME280;5113;41.822;23.564;2023-03-04T04:39:26;-11023.03;;;3.21;100.00
10145;BME280;5113;41.822;23.564;2023-03-04T04:42:33;-11033.97;;;3.60;100.00
10145;BME280;5113;41.822;23.564;2023-03-04T04:45:40;-11024.31;;;3.25;100.00
10145;BME280;5113;41.822;23.564;2023-03-04T04:48:48;-11015.19;;;2.92;100.00
10145;BME280;5113;41.822;23.564;2023-03-04T04:51:55;-11024.31;;;3.25;100.00
10145;BME280;5113;41.822;23.564;2023-03-04T04:55:01;-11016.72;;;2.98;100.00
10145;BME280;5113;41.822;23.564;2023-03-04T04:58:08;-11020.09;;;3.10;100.00
10145;BME280;5113;41.822;23.564;2023-03-04T05:01:14;-11020.09;;;3.10;100.00
10145;BME280;5113;41.822;23.564;2023-03-04T05:04:22;-11019.66;;;3.09;100.00
10145;BME280;5113;41.822;23.564;2023-03-04T05:07:28;-11030.91;;;3.49;100.00
10145;BME280;5113;41.822;23.564;2023-03-04T05:10:34;-11041.13;;;3.86;100.00
10145;BME280;5113;41.822;23.564;2023-03-04T05:13:40;-11039.03;;;3.79;100.00
10145;BME280;5113;41.822;23.564;2023-03-04T05:16:47;-11043.53;;;3.95;100.00
10145;BME280;5113;41.822;23.564;2023-03-04T05:19:54;-11029.06;;;3.43;100.00
10145;BME280;5113;41.822;23.564;2023-03-04T05:23:00;-11026.41;;;3.33;100.00
10145;BME280;5113;41.822;23.564;2023-03-04T05:26:07;-11027.94;;;3.39;100.00
10145;BME280;5113;41.822;23.564;2023-03-04T05:29:14;-11042.41;;;3.91;100.00
10145;BME280;5113;41.822;23.564;2023-03-04T05:32:20;-11045.91;;;4.04;100.00
10145;BME280;5113;41.822;23.564;2023-03-04T05:35:27;-11049.00;;;4.15;100.00
10145;BME280;5113;41.822;23.564;2023-03-04T05:38:34;-11049.69;;;4.17;100.00
10145;BME280;5113;41.822;23.564;2023-03-04T05:41:41;-11054.19;;;4.34;100.00
10145;BME280;5113;41.822;23.564;2023-03-04T05:44:47;-11054.88;;;4.36;100.00
10145;BME280;5113;41.822;23.564;2023-03-04T05:47:54;-11053.19;;;4.30;100.00
10145;BME280;5113;41.822;23.564;2023-03-04T05:51:02;-11057.97;;;4.47;100.00
10145;BME280;5113;41.822;23.564;2023-03-04T05:54:08;-11058.41;;;4.49;100.00
10145;BME280;5113;41.822;23.564;2023-03-04T05:57:15;-11063.88;;;4.69;100.00
10145;BME280;5113;41.822;23.564;2023-03-04T06:00:21;-11061.75;;;4.61;100.00
10145;BME280;5113;41.822;23.564;2023-03-04T06:03:27;-11056.28;;;4.41;100.00
10145;BME280;5113;41.822;23.564;2023-03-04T06:06:35;-11049.00;;;4.15;100.00
10145;BME280;5113;41.822;23.564;2023-03-04T06:09:42;-11051.50;;;4.24;100.00
10145;BME280;5113;41.822;23.564;2023-03-04T06:12:48;-11053.47;;;4.31;100.00
10145;BME280;5113;41.822;23.564;2023-03-04T06:15:56;-11053.47;;;4.31;100.00
10145;BME280;5113;41.822;23.564;2023-03-04T06:19:03;-11065.13;;;4.73;100.00
10145;BME280;5113;41.822;23.564;2023-03-04T06:22:11;-11059.38;;;4.52;100.00
10145;BME280;5113;41.822;23.564;2023-03-04T06:25:17;-11062.03;;;4.62;100.00
10145;BME280;5113;41.822;23.564;2023-03-04T06:28:23;-11065.84;;;4.76;100.00
10145;BME280;5113;41.822;23.564;2023-03-04T06:31:30;-11063.88;;;4.69;100.00
10145;BME280;5113;41.822;23.564;2023-03-04T06:34:35;-11070.75;;;4.93;100.00
10145;BME280;5113;41.822;23.564;2023-03-04T06:37:43;-11073.41;;;5.03;100.00
10145;BME280;5113;41.822;23.564;2023-03-04T06:40:50;-11067.50;;;4.82;100.00
10145;BME280;5113;41.822;23.564;2023-03-04T06:43:58;-11065.28;;;4.74;100.00
10145;BME280;5113;41.822;23.564;2023-03-04T06:47:04;-11075.09;;;5.09;100.00
10145;BME280;5113;41.822;23.564;2023-03-04T06:50:11;-11069.19;;;4.88;100.00
10145;BME280;5113;41.822;23.564;2023-03-04T06:53:19;-11072.00;;;4.98;100.00
10145;BME280;5113;41.822;23.564;2023-03-04T06:56:25;-11068.91;;;4.87;100.00
10145;BME280;5113;41.822;23.564;2023-03-04T06:59:31;-11068.22;;;4.84;100.00
10145;BME280;5113;41.822;23.564;2023-03-04T07:02:38;-11070.47;;;4.92;100.00
10145;BME280;5113;41.822;23.564;2023-03-04T07:05:44;-11066.13;;;4.77;100.00
10145;BME280;5113;41.822;23.564;2023-03-04T07:08:52;-11070.03;;;4.91;100.00
10145;BME280;5113;41.822;23.564;2023-03-04T07:11:59;-11073.41;;;5.03;100.00
10145;BME280;5113;41.822;23.564;2023-03-04T07:15:06;-11077.34;;;5.17;100.00
10145;BME280;5113;41.822;23.564;2023-03-04T07:18:12;-11073.97;;;5.05;100.00
10145;BME280;5113;41.822;23.564;2023-03-04T07:21:18;-11067.50;;;4.82;100.00
10145;BME280;5113;41.822;23.564;2023-03-04T07:24:26;-11078.75;;;5.22;100.00
10145;BME280;5113;41.822;23.564;2023-03-04T07:27:32;-11090.53;;;5.65;100.00
10145;BME280;5113;41.822;23.564;2023-03-04T07:30:38;-11085.19;;;5.46;100.00
10145;BME280;5113;41.822;23.564;2023-03-04T07:33:44;-11080.28;;;5.28;100.00
10145;BME280;5113;41.822;23.564;2023-03-04T07:36:50;-11085.47;;;5.47;100.00
10145;BME280;5113;41.822;23.564;2023-03-04T07:39:57;-11085.75;;;5.48;100.00
10145;BME280;5113;41.822;23.564;2023-03-04T07:43:04;-11094.31;;;5.79;100.00
10145;BME280;5113;41.822;23.564;2023-03-04T07:46:10;-11089.28;;;5.60;100.00
10145;BME280;5113;41.822;23.564;2023-03-04T07:49:17;-11095.31;;;5.82;100.00
10145;BME280;5113;41.822;23.564;2023-03-04T07:52:23;-11108.22;;;6.29;100.00
10145;BME280;5113;41.822;23.564;2023-03-04T07:55:31;-11094.31;;;5.79;100.00
10145;BME280;5113;41.822;23.564;2023-03-04T07:58:38;-11103.03;;;6.10;100.00
10145;BME280;5113;41.822;23.564;2023-03-04T08:01:44;-11112.72;;;6.45;100.00
10145;BME280;5113;41.822;23.564;2023-03-04T08:04:51;-11116.38;;;6.58;100.00
10145;BME280;5113;41.822;23.564;2023-03-04T08:07:57;-11104.31;;;6.15;100.00
10145;BME280;5113;41.822;23.564;2023-03-04T08:11:05;-11112.72;;;6.45;100.00
10145;BME280;5113;41.822;23.564;2023-03-04T08:14:13;-11113.72;;;6.49;100.00
10145;BME280;5113;41.822;23.564;2023-03-04T08:17:19;-11118.91;;;6.68;100.00
10145;BME280;5113;41.822;23.564;2023-03-04T08:20:26;-11120.88;;;6.75;100.00
10145;BME280;5113;41.822;23.564;2023-03-04T08:23:32;-11097.97;;;5.92;100.00
10145;BME280;5113;41.822;23.564;2023-03-04T08:26:41;-11117.66;;;6.63;100.00
10145;BME280;5113;41.822;23.564;2023-03-04T08:29:48;-11132.53;;;7.17;100.00
10145;BME280;5113;41.822;23.564;2023-03-04T08:32:54;-11122.84;;;6.82;100.00
10145;BME280;5113;41.822;23.564;2023-03-04T08:36:00;-11127.91;;;7.00;100.00
10145;BME280;5113;41.822;23.564;2023-03-04T08:39:07;-11133.50;;;7.20;100.00
10145;BME280;5113;41.822;23.564;2023-03-04T08:42:15;-11127.75;;;7.00;100.00
10145;BME280;5113;41.822;23.564;2023-03-04T08:45:21;-11130.00;;;7.08;100.00
10145;BME280;5113;41.822;23.564;2023-03-04T08:48:27;-11130.28;;;7.09;100.00
10145;BME280;5113;41.822;23.564;2023-03-04T08:54:59;-11150.22;;;7.81;100.00
10145;BME280;5113;41.822;23.564;2023-03-04T08:58:07;-11131.53;;;7.13;100.00
10145;BME280;5113;41.822;23.564;2023-03-04T09:01:13;-11141.66;;;7.50;100.00
10145;BME280;5113;41.822;23.564;2023-03-04T09:04:20;-11141.81;;;7.50;100.00
10145;BME280;5113;41.822;23.564;2023-03-04T09:07:26;-11120.31;;;6.73;100.00
10145;BME280;5113;41.822;23.564;2023-03-04T09:10:32;-11134.06;;;7.22;100.00
10145;BME280;5113;41.822;23.564;2023-03-04T09:13:40;-11139.56;;;7.42;100.00
10145;BME280;5113;41.822;23.564;2023-03-04T09:16:46;-11130.28;;;7.09;100.00
10145;BME280;5113;41.822;23.564;2023-03-04T09:19:52;-11147.84;;;7.72;100.00
10145;BME280;5113;41.822;23.564;2023-03-04T09:23:00;-11144.63;;;7.60;100.00
10145;BME280;5113;41.822;23.564;2023-03-04T09:26:16;-11147.13;;;7.70;100.00
10145;BME280;5113;41.822;23.564;2023-03-04T09:29:25;-11144.91;;;7.61;100.00
10145;BME280;5113;41.822;23.564;2023-03-04T09:32:32;-11142.50;;;7.53;100.00
10145;BME280;5113;41.822;23.564;2023-03-04T09:35:38;-11140.97;;;7.47;100.00
10145;BME280;5113;41.822;23.564;2023-03-04T09:38:45;-11141.25;;;7.48;100.00
10145;BME280;5113;41.822;23.564;2023-03-04T09:41:53;-11139.28;;;7.41;100.00
10145;BME280;5113;41.822;23.564;2023-03-04T09:45:03;-11143.62;;;7.57;100.00
10145;BME280;5113;41.822;23.564;2023-03-04T09:48:12;-11133.09;;;7.19;100.00
10145;BME280;5113;41.822;23.564;2023-03-04T09:51:22;-11132.38;;;7.16;100.00
10145;BME280;5113;41.822;23.564;2023-03-04T09:54:57;-11135.75;;;7.28;100.00
10145;BME280;5113;41.822;23.564;2023-03-04T09:58:25;-11125.22;;;6.90;100.00
10145;BME280;5113;41.822;23.564;2023-03-04T10:01:37;-11121.00;;;6.75;100.00
10145;BME280;5113;41.822;23.564;2023-03-04T10:04:49;-11134.91;;;7.25;100.00
10145;BME280;5113;41.822;23.564;2023-03-04T10:07:59;-11130.13;;;7.08;100.00
10145;BME280;5113;41.822;23.564;2023-03-04T10:11:14;-11142.50;;;7.53;100.00
10145;BME280;5113;41.822;23.564;2023-03-04T10:14:31;-11144.47;;;7.60;100.00
10145;BME280;5113;41.822;23.564;2023-03-04T10:17:42;-11131.81;;;7.14;100.00
10145;BME280;5113;41.822;23.564;2023-03-04T10:20:53;-11132.81;;;7.18;100.00
10145;BME280;5113;41.822;23.564;2023-03-04T10:24:10;-11138.72;;;7.39;100.00
10145;BME280;5113;41.822;23.564;2023-03-04T10:27:18;-11138.84;;;7.40;100.00
10145;BME280;5113;41.822;23.564;2023-03-04T10:30:38;-11151.50;;;7.85;100.00
10145;BME280;5113;41.822;23.564;2023-03-04T10:33:49;-11163.03;;;8.27;100.00
10145;BME280;5113;41.822;23.564;2023-03-04T10:36:58;-11166.53;;;8.40;100.00
10145;BME280;5113;41.822;23.564;2023-03-04T10:40:17;-11156.41;;;8.03;100.00
10145;BME280;5113;41.822;23.564;2023-03-04T10:43:24;-11165.97;;;8.38;100.00
10145;BME280;5113;41.822;23.564;2023-03-04T10:46:30;-11138.84;;;7.40;100.00
10145;BME280;5113;41.822;23.564;2023-03-04T10:49:49;-11134.63;;;7.24;100.00
10145;BME280;5113;41.822;23.564;2023-03-04T10:52:57;-11128.19;;;7.01;100.00
10145;BME280;5113;41.822;23.564;2023-03-04T10:59:38;-11148.81;;;7.76;100.00
10145;BME280;5113;41.822;23.564;2023-03-04T11:02:46;-11154.03;;;7.94;100.00
10145;BME280;5113;41.822;23.564;2023-03-04T11:06:04;-11145.31;;;7.63;100.00
10145;BME280;5113;41.822;23.564;2023-03-04T11:09:21;-11148.97;;;7.76;100.00
10145;BME280;5113;41.822;23.564;2023-03-04T11:12:32;-11145.03;;;7.62;100.00
10145;BME280;5113;41.822;23.564;2023-03-04T11:15:49;-11147.84;;;7.72;100.00
10145;BME280;5113;41.822;23.564;2023-03-04T11:18:59;-11130.84;;;7.11;100.00
10145;BME280;5113;41.822;23.564;2023-03-04T11:22:12;-11130.56;;;7.10;100.00
10145;BME280;5113;41.822;23.564;2023-03-04T11:25:25;-11143.91;;;7.58;100.00
10145;BME280;5113;41.822;23.564;2023-03-04T11:28:39;-11153.31;;;7.92;100.00
10145;BME280;5113;41.822;23.564;2023-03-04T11:31:50;-11171.19;;;8.56;100.00
10145;BME280;5113;41.822;23.564;2023-03-04T11:35:05;-11160.78;;;8.19;100.00
10145;BME280;5113;41.822;23.564;2023-03-04T11:38:18;-11155.72;;;8.01;100.00
10145;BME280;5113;41.822;23.564;2023-03-04T11:41:28;-11170.47;;;8.54;100.00
10145;BME280;5113;41.822;23.564;2023-03-04T11:44:36;-11167.53;;;8.43;100.00
10145;BME280;5113;41.822;23.564;2023-03-04T11:47:52;-11163.59;;;8.29;100.00
10145;BME280;5113;41.822;23.564;2023-03-04T11:51:05;-11176.50;;;8.76;100.00
10145;BME280;5113;41.822;23.564;2023-03-04T11:54:24;-11169.63;;;8.51;100.00
10145;BME280;5113;41.822;23.564;2023-03-04T11:57:46;-11188.31;;;9.18;100.00
10145;BME280;5113;41.822;23.564;2023-03-04T12:00:56;-11176.38;;;8.75;100.00
10145;BME280;5113;41.822;23.564;2023-03-04T12:04:27;-11189.44;;;9.22;100.00
10145;BME280;5113;41.822;23.564;2023-03-04T12:07:58;-11182.41;;;8.97;100.00
10145;BME280;5113;41.822;23.564;2023-03-04T12:11:13;-11160.91;;;8.19;100.00
10145;BME280;5113;41.822;23.564;2023-03-04T12:14:30;-11161.06;;;8.20;100.00
10145;BME280;5113;41.822;23.564;2023-03-04T12:17:49;-11163.88;;;8.30;100.00
10145;BME280;5113;41.822;23.564;2023-03-04T12:21:13;-11168.94;;;8.48;100.00
10145;BME280;5113;41.822;23.564;2023-03-04T12:24:33;-11157.41;;;8.07;100.00
10145;BME280;5113;41.822;23.564;2023-03-04T12:27:54;-11195.34;;;9.44;100.00
10145;BME280;5113;41.822;23.564;2023-03-04T12:31:19;-11205.47;;;9.80;100.00
10145;BME280;5113;41.822;23.564;2023-03-04T12:34:51;-11191.97;;;9.32;100.00
10145;BME280;5113;41.822;23.564;2023-03-04T12:41:40;-11178.47;;;8.83;100.00
10145;BME280;5113;41.822;23.564;2023-03-04T12:44:57;-11171.47;;;8.57;100.00
10145;BME280;5113;41.822;23.564;2023-03-04T12:48:17;-11169.06;;;8.49;100.00
10145;BME280;5113;41.822;23.564;2023-03-04T12:51:31;-11165.84;;;8.37;100.00
10145;BME280;5113;41.822;23.564;2023-03-04T12:54:42;-11163.59;;;8.29;100.00
10145;BME280;5113;41.822;23.564;2023-03-04T12:57:50;-11159.09;;;8.13;100.00
10145;BME280;5113;41.822;23.564;2023-03-04T13:01:03;-11167.38;;;8.43;100.00
10145;BME280;5113;41.822;23.564;2023-03-04T13:04:15;-11168.50;;;8.47;100.00
10145;BME280;5113;41.822;23.564;2023-03-04T13:07:38;-11173.16;;;8.64;100.00
10145;BME280;5113;41.822;23.564;2023-03-04T13:10:49;-11180.88;;;8.91;100.00
10145;BME280;5113;41.822;23.564;2023-03-04T13:14:06;-11174.69;;;8.69;100.00
10145;BME280;5113;41.822;23.564;2023-03-04T13:17:37;-11181.44;;;8.93;100.00
10145;BME280;5113;41.822;23.564;2023-03-04T13:21:04;-11175.53;;;8.72;100.00
10145;BME280;5113;41.822;23.564;2023-03-04T13:24:44;-11179.31;;;8.86;100.00
10145;BME280;5113;41.822;23.564;2023-03-04T13:28:15;-11184.09;;;9.03;100.00
10145;BME280;5113;41.822;23.564;2023-03-04T13:31:25;-11172.88;;;8.63;100.00
10145;BME280;5113;41.822;23.564;2023-03-04T13:34:45;-11174.53;;;8.69;100.00
10145;BME280;5113;41.822;23.564;2023-03-04T13:37:56;-11174.25;;;8.68;100.00
10145;BME280;5113;41.822;23.564;2023-03-04T13:41:09;-11175.81;;;8.73;100.00
10145;BME280;5113;41.822;23.564;2023-03-04T13:44:57;-11174.25;;;8.68;100.00
10145;BME280;5113;41.822;23.564;2023-03-04T13:48:07;-11177.06;;;8.78;100.00
10145;BME280;5113;41.822;23.564;2023-03-04T13:51:30;-11171.88;;;8.59;100.00
10145;BME280;5113;41.822;23.564;2023-03-04T13:54:38;-11169.22;;;8.49;100.00
10145;BME280;5113;41.822;23.564;2023-03-04T13:57:48;-11172.16;;;8.60;100.00
10145;BME280;5113;41.822;23.564;2023-03-04T14:00:56;-11171.88;;;8.59;100.00
10145;BME280;5113;41.822;23.564;2023-03-04T14:04:11;-11167.25;;;8.42;100.00
10145;BME280;5113;41.822;23.564;2023-03-04T14:07:25;-11169.50;;;8.50;100.00
10145;BME280;5113;41.822;23.564;2023-03-04T14:10:32;-11173.16;;;8.64;100.00
10145;BME280;5113;41.822;23.564;2023-03-04T14:13:38;-11180.16;;;8.89;100.00
10145;BME280;5113;41.822;23.564;2023-03-04T14:16:47;-11175.09;;;8.71;100.00
10145;BME280;5113;41.822;23.564;2023-03-04T14:19:54;-11176.38;;;8.75;100.00
10145;BME280;5113;41.822;23.564;2023-03-04T14:23:04;-11173.97;;;8.67;100.00
10145;BME280;5113;41.822;23.564;2023-03-04T14:26:27;-11171.03;;;8.56;100.00
10145;BME280;5113;41.822;23.564;2023-03-04T14:29:34;-11172.72;;;8.62;100.00
10145;BME280;5113;41.822;23.564;2023-03-04T14:32:42;-11172.03;;;8.59;100.00
10145;BME280;5113;41.822;23.564;2023-03-04T14:35:53;-11172.88;;;8.63;100.00
10145;BME280;5113;41.822;23.564;2023-03-04T14:39:04;-11161.75;;;8.22;100.00
10145;BME280;5113;41.822;23.564;2023-03-04T14:42:13;-11165.00;;;8.34;100.00
10145;BME280;5113;41.822;23.564;2023-03-04T14:45:21;-11163.72;;;8.29;100.00
10145;BME280;5113;41.822;23.564;2023-03-04T14:48:30;-11164.72;;;8.33;100.00
10145;BME280;5113;41.822;23.564;2023-03-04T14:51:44;-11162.19;;;8.24;100.00
10145;BME280;5113;41.822;23.564;2023-03-04T14:55:01;-11159.66;;;8.15;100.00
10145;BME280;5113;41.822;23.564;2023-03-04T14:58:20;-11160.91;;;8.19;100.00
10145;BME280;5113;41.822;23.564;2023-03-04T15:01:32;-11163.31;;;8.28;100.00
10145;BME280;5113;41.822;23.564;2023-03-04T15:04:39;-11163.59;;;8.29;100.00
10145;BME280;5113;41.822;23.564;2023-03-04T15:07:49;-11162.88;;;8.26;100.00
10145;BME280;5113;41.822;23.564;2023-03-04T15:10:59;-11161.75;;;8.22;100.00
10145;BME280;5113;41.822;23.564;2023-03-04T15:14:15;-11161.91;;;8.23;100.00
10145;BME280;5113;41.822;23.564;2023-03-04T15:17:40;-11158.53;;;8.11;100.00
10145;BME280;5113;41.822;23.564;2023-03-04T15:20:53;-11159.09;;;8.13;100.00
10145;BME280;5113;41.822;23.564;2023-03-04T15:23:59;-11154.44;;;7.96;100.00
10145;BME280;5113;41.822;23.564;2023-03-04T15:27:09;-11154.03;;;7.94;100.00
10145;BME280;5113;41.822;23.564;2023-03-04T15:30:19;-11155.16;;;7.99;100.00
10145;BME280;5113;41.822;23.564;2023-03-04T15:33:26;-11151.22;;;7.84;100.00
10145;BME280;5113;41.822;23.564;2023-03-04T15:36:32;-11151.50;;;7.85;100.00
10145;BME280;5113;41.822;23.564;2023-03-04T15:39:39;-11147.00;;;7.69;100.00
10145;BME280;5113;41.822;23.564;2023-03-04T15:42:47;-11143.34;;;7.56;100.00
10145;BME280;5113;41.822;23.564;2023-03-04T15:45:53;-11139.13;;;7.41;100.00
10145;BME280;5113;41.822;23.564;2023-03-04T15:48:59;-11145.03;;;7.62;100.00
10145;BME280;5113;41.822;23.564;2023-03-04T15:52:06;-11138.84;;;7.40;100.00
10145;BME280;5113;41.822;23.564;2023-03-04T15:55:18;-11133.78;;;7.21;100.00
10145;BME280;5113;41.822;23.564;2023-03-04T15:58:27;-11131.81;;;7.14;100.00
10145;BME280;5113;41.822;23.564;2023-03-04T16:01:37;-11130.69;;;7.10;100.00
10145;BME280;5113;41.822;23.564;2023-03-04T16:04:44;-11130.13;;;7.08;100.00
10145;BME280;5113;41.822;23.564;2023-03-04T16:07:51;-11127.06;;;6.97;100.00
10145;BME280;5113;41.822;23.564;2023-03-04T16:10:57;-11124.09;;;6.86;100.00
10145;BME280;5113;41.822;23.564;2023-03-04T16:14:05;-11116.09;;;6.57;100.00
10145;BME280;5113;41.822;23.564;2023-03-04T16:17:11;-11117.66;;;6.63;100.00
10145;BME280;5113;41.822;23.564;2023-03-04T16:20:22;-11122.28;;;6.80;100.00
10145;BME280;5113;41.822;23.564;2023-03-04T16:23:30;-11114.97;;;6.53;100.00
10145;BME280;5113;41.822;23.564;2023-03-04T16:26:40;-11116.09;;;6.57;100.00
10145;BME280;5113;41.822;23.564;2023-03-04T16:29:48;-11111.59;;;6.41;100.00
10145;BME280;5113;41.822;23.564;2023-03-04T16:32:55;-11109.63;;;6.34;100.00
10145;BME280;5113;41.822;23.564;2023-03-04T16:36:01;-11106.41;;;6.22;100.00
10145;BME280;5113;41.822;23.564;2023-03-04T16:39:14;-11109.06;;;6.32;100.00
10145;BME280;5113;41.822;23.564;2023-03-04T16:42:21;-11107.81;;;6.27;100.00